Avoca, Minnesota
Current Conditions -  °F | °C
As of 9:56 PM on Wednesday 17 Dec 2014 (Local Time) from KDVP Reporting Station
Clear Clear  
Wind Chill:   Ceiling: Unl
Heat Index:   Visibility: 10mi
Dew Point:   Wind: 0mph
Humidity: 92%   Direction: NA
Pressure: 30.25"   Gusts: NA
Location:  43.95°N, 95.65°W
Report Text: KDVP 180356Z AUTO 00000KT 10SM CLR M14/M15 A3025 RMK AO2 T11441155
Loading
Personal Weather Stations






























Interactive Weather Map New forecast layout! Learn more

10-Day Weather Forecast

Advertisements
Track Severe Weather on mobile